Woodville, Alabama
Current Conditions -  °F | °C
As of 10:15 AM on Saturday 20 Dec 2014 (Local Time) from K4A6 Reporting Station
Overcast Overcast  
Wind Chill: 43°   Ceiling: 4400
Heat Index: 43°   Visibility: 10mi
Dew Point: 32°   Wind: 3mph
Humidity: 66%   Direction: 60°ENE
Pressure: 30.25"   Gusts: NA
Location:  34.63°N, 86.27°W
Report Text: K4A6 201615Z AUTO 06003KT 10SM OVC044 06/00 A3025 RMK AO2
Loading
Personal Weather Stations






























Interactive Weather Map New forecast layout! Learn more

10-Day Weather Forecast

Advertisements
Track Severe Weather on mobile